sensor_id;sensor_type;location;lat;lon;timestamp;pressure;altitude;pressure_sealevel;temperature;humidity
81835;BME280;71272;52.166;4.498;2023-08-20T00:01:28;102114.38;;;17.08;90.07
81835;BME280;71272;52.166;4.498;2023-08-20T00:03:55;102138.53;;;17.24;90.02
81835;BME280;71272;52.166;4.498;2023-08-20T00:06:21;102146.09;;;17.38;90.02
81835;BME280;71272;52.166;4.498;2023-08-20T00:08:47;102150.13;;;17.40;89.75
81835;BME280;71272;52.166;4.498;2023-08-20T00:11:13;102136.44;;;17.35;90.23
81835;BME280;71272;52.166;4.498;2023-08-20T00:13:39;102124.72;;;17.29;90.60
81835;BME280;71272;52.166;4.498;2023-08-20T00:16:05;102133.22;;;17.29;90.30
81835;BME280;71272;52.166;4.498;2023-08-20T00:18:31;102135.75;;;17.20;90.95
81835;BME280;71272;52.166;4.498;2023-08-20T00:20:56;102149.94;;;17.17;91.15
81835;BME280;71272;52.166;4.498;2023-08-20T00:23:22;102150.78;;;17.10;90.98
81835;BME280;71272;52.166;4.498;2023-08-20T00:25:48;102150.31;;;17.22;91.20
81835;BME280;71272;52.166;4.498;2023-08-20T00:28:13;102171.34;;;17.21;91.04
81835;BME280;71272;52.166;4.498;2023-08-20T00:30:39;102150.44;;;17.08;91.28
81835;BME280;71272;52.166;4.498;2023-08-20T00:33:04;102161.69;;;17.15;91.46
81835;BME280;71272;52.166;4.498;2023-08-20T00:35:30;102167.72;;;17.21;91.14
81835;BME280;71272;52.166;4.498;2023-08-20T00:37:55;102173.31;;;17.31;91.21
81835;BME280;71272;52.166;4.498;2023-08-20T00:40:21;102175.38;;;17.27;90.87
81835;BME280;71272;52.166;4.498;2023-08-20T00:42:46;102159.69;;;17.12;91.53
81835;BME280;71272;52.166;4.498;2023-08-20T00:45:12;102161.72;;;17.12;91.97
81835;BME280;71272;52.166;4.498;2023-08-20T00:47:37;102180.34;;;17.16;92.69
81835;BME280;71272;52.166;4.498;2023-08-20T00:50:04;102170.31;;;17.01;92.23
81835;BME280;71272;52.166;4.498;2023-08-20T00:52:33;102165.47;;;16.98;92.55
81835;BME280;71272;52.166;4.498;2023-08-20T00:54:59;102202.69;;;17.03;92.66
81835;BME280;71272;52.166;4.498;2023-08-20T00:57:26;102191.41;;;16.93;92.96
81835;BME280;71272;52.166;4.498;2023-08-20T00:59:51;102199.88;;;16.96;93.56
81835;BME280;71272;52.166;4.498;2023-08-20T01:02:20;102189.41;;;16.90;93.41
81835;BME280;71272;52.166;4.498;2023-08-20T01:04:46;102208.81;;;16.95;93.88
81835;BME280;71272;52.166;4.498;2023-08-20T01:07:31;102177.28;;;16.85;93.69
81835;BME280;71272;52.166;4.498;2023-08-20T01:10:17;102205.53;;;17.03;93.97
81835;BME280;71272;52.166;4.498;2023-08-20T01:12:43;102207.13;;;17.08;93.85
81835;BME280;71272;52.166;4.498;2023-08-20T01:15:09;102190.16;;;17.01;93.64
81835;BME280;71272;52.166;4.498;2023-08-20T01:17:40;102201.06;;;17.06;93.94
81835;BME280;71272;52.166;4.498;2023-08-20T01:20:07;102207.16;;;17.01;94.37
81835;BME280;71272;52.166;4.498;2023-08-20T01:25:45;102198.31;;;16.92;94.59
81835;BME280;71272;52.166;4.498;2023-08-20T01:28:30;102194.72;;;16.84;95.22
81835;BME280;71272;52.166;4.498;2023-08-20T01:30:58;102201.25;;;16.70;95.71
81835;BME280;71272;52.166;4.498;2023-08-20T01:36:30;102175.16;;;16.19;96.18
81835;BME280;71272;52.166;4.498;2023-08-20T01:38:55;102191.72;;;16.28;97.13
81835;BME280;71272;52.166;4.498;2023-08-20T01:41:20;102187.25;;;16.31;97.40
81835;BME280;71272;52.166;4.498;2023-08-20T01:43:46;102204.63;;;16.36;98.08
81835;BME280;71272;52.166;4.498;2023-08-20T01:46:11;102192.88;;;16.41;97.65
81835;BME280;71272;52.166;4.498;2023-08-20T01:48:38;102199.34;;;16.38;98.05
81835;BME280;71272;52.166;4.498;2023-08-20T01:51:03;102200.22;;;16.25;97.94
81835;BME280;71272;52.166;4.498;2023-08-20T01:53:28;102188.91;;;16.25;98.28
81835;BME280;71272;52.166;4.498;2023-08-20T01:55:54;102177.59;;;16.21;98.69
81835;BME280;71272;52.166;4.498;2023-08-20T01:58:19;102171.09;;;16.28;98.87
81835;BME280;71272;52.166;4.498;2023-08-20T02:00:45;102187.69;;;16.29;99.08
81835;BME280;71272;52.166;4.498;2023-08-20T02:03:11;102182.84;;;16.19;98.98
81835;BME280;71272;52.166;4.498;2023-08-20T02:05:36;102190.53;;;16.22;99.39
81835;BME280;71272;52.166;4.498;2023-08-20T02:08:03;102182.44;;;16.17;99.83
81835;BME280;71272;52.166;4.498;2023-08-20T02:10:29;102197.78;;;16.23;99.90
81835;BME280;71272;52.166;4.498;2023-08-20T02:12:54;102176.78;;;16.17;99.63
81835;BME280;71272;52.166;4.498;2023-08-20T02:15:19;102190.47;;;16.33;99.08
81835;BME280;71272;52.166;4.498;2023-08-20T02:17:45;102198.63;;;16.24;98.99
81835;BME280;71272;52.166;4.498;2023-08-20T02:20:11;102205.50;;;16.19;99.28
81835;BME280;71272;52.166;4.498;2023-08-20T02:22:36;102198.66;;;16.13;99.33
81835;BME280;71272;52.166;4.498;2023-08-20T02:25:02;102187.34;;;15.98;99.45
81835;BME280;71272;52.166;4.498;2023-08-20T02:27:27;102194.63;;;16.03;99.42
81835;BME280;71272;52.166;4.498;2023-08-20T02:29:53;102177.69;;;15.96;99.68
81835;BME280;71272;52.166;4.498;2023-08-20T02:32:18;102164.78;;;15.88;99.80
81835;BME280;71272;52.166;4.498;2023-08-20T02:34:44;102197.09;;;15.94;100.00
81835;BME280;71272;52.166;4.498;2023-08-20T02:37:09;102177.72;;;15.78;100.00
81835;BME280;71272;52.166;4.498;2023-08-20T02:39:35;102190.66;;;15.68;100.00
81835;BME280;71272;52.166;4.498;2023-08-20T02:42:00;102197.13;;;15.69;100.00
81835;BME280;71272;52.166;4.498;2023-08-20T02:44:25;102209.63;;;15.75;100.00
81835;BME280;71272;52.166;4.498;2023-08-20T02:46:51;102212.06;;;15.73;100.00
81835;BME280;71272;52.166;4.498;2023-08-20T02:49:16;102203.97;;;15.64;100.00
81835;BME280;71272;52.166;4.498;2023-08-20T02:51:43;102213.25;;;15.58;100.00
81835;BME280;71272;52.166;4.498;2023-08-20T02:54:08;102227.03;;;15.70;100.00
81835;BME280;71272;52.166;4.498;2023-08-20T02:56:34;102222.16;;;15.74;100.00
81835;BME280;71272;52.166;4.498;2023-08-20T02:58:59;102241.13;;;15.84;100.00
81835;BME280;71272;52.166;4.498;2023-08-20T03:01:27;102231.81;;;15.66;100.00
81835;BME280;71272;52.166;4.498;2023-08-20T03:03:52;102241.56;;;15.47;100.00
81835;BME280;71272;52.166;4.498;2023-08-20T03:06:18;102233.84;;;15.33;100.00
81835;BME280;71272;52.166;4.498;2023-08-20T03:08:43;102230.22;;;15.25;100.00
81835;BME280;71272;52.166;4.498;2023-08-20T03:11:09;102235.06;;;15.18;100.00
81835;BME280;71272;52.166;4.498;2023-08-20T03:13:34;102229.38;;;15.10;100.00
81835;BME280;71272;52.166;4.498;2023-08-20T03:16:00;102233.00;;;15.07;100.00
81835;BME280;71272;52.166;4.498;2023-08-20T03:18:26;102230.56;;;15.02;100.00
81835;BME280;71272;52.166;4.498;2023-08-20T03:20:54;102213.22;;;14.93;100.00
81835;BME280;71272;52.166;4.498;2023-08-20T03:23:20;102214.84;;;15.05;100.00
81835;BME280;71272;52.166;4.498;2023-08-20T03:25:46;102210.81;;;15.38;100.00
81835;BME280;71272;52.166;4.498;2023-08-20T03:28:11;102223.75;;;15.53;100.00
81835;BME280;71272;52.166;4.498;2023-08-20T03:30:36;102223.38;;;15.59;100.00
81835;BME280;71272;52.166;4.498;2023-08-20T03:33:02;102218.91;;;15.58;100.00
81835;BME280;71272;52.166;4.498;2023-08-20T03:35:28;102230.22;;;15.65;100.00
81835;BME280;71272;52.166;4.498;2023-08-20T03:37:53;102214.88;;;15.51;100.00
81835;BME280;71272;52.166;4.498;2023-08-20T03:40:18;102220.53;;;15.59;100.00
81835;BME280;71272;52.166;4.498;2023-08-20T03:42:44;102216.50;;;15.52;100.00
81835;BME280;71272;52.166;4.498;2023-08-20T03:45:09;102210.00;;;15.41;100.00
81835;BME280;71272;52.166;4.498;2023-08-20T03:47:34;102214.47;;;15.24;100.00
81835;BME280;71272;52.166;4.498;2023-08-20T03:50:02;102229.78;;;15.13;100.00
81835;BME280;71272;52.166;4.498;2023-08-20T03:52:27;102218.06;;;14.96;100.00
81835;BME280;71272;52.166;4.498;2023-08-20T03:54:53;102221.25;;;14.84;100.00
81835;BME280;71272;52.166;4.498;2023-08-20T03:57:18;102210.75;;;14.74;100.00
81835;BME280;71272;52.166;4.498;2023-08-20T03:59:43;102240.19;;;14.80;100.00
81835;BME280;71272;52.166;4.498;2023-08-20T04:02:10;102236.53;;;14.69;100.00
81835;BME280;71272;52.166;4.498;2023-08-20T04:04:36;102225.19;;;14.54;100.00
81835;BME280;71272;52.166;4.498;2023-08-20T04:07:02;102233.66;;;14.54;100.00
81835;BME280;71272;52.166;4.498;2023-08-20T04:09:28;102226.31;;;14.42;100.00
81835;BME280;71272;52.166;4.498;2023-08-20T04:11:53;102226.72;;;14.41;100.00
81835;BME280;71272;52.166;4.498;2023-08-20T04:14:18;102225.88;;;14.37;100.00
81835;BME280;71272;52.166;4.498;2023-08-20T04:16:44;102253.44;;;14.54;100.00
81835;BME280;71272;52.166;4.498;2023-08-20T04:19:09;102248.53;;;14.51;100.00
81835;BME280;71272;52.166;4.498;2023-08-20T04:21:35;102236.38;;;14.40;100.00
81835;BME280;71272;52.166;4.498;2023-08-20T04:24:00;102241.66;;;14.45;100.00
81835;BME280;71272;52.166;4.498;2023-08-20T04:26:25;102260.66;;;14.52;100.00
81835;BME280;71272;52.166;4.498;2023-08-20T04:28:51;102247.31;;;14.49;100.00
81835;BME280;71272;52.166;4.498;2023-08-20T04:31:16;102261.03;;;14.47;100.00
81835;BME280;71272;52.166;4.498;2023-08-20T04:33:48;102262.22;;;14.46;100.00
81835;BME280;71272;52.166;4.498;2023-08-20T04:36:13;102269.50;;;14.50;100.00
81835;BME280;71272;52.166;4.498;2023-08-20T04:38:57;102236.31;;;14.29;100.00
81835;BME280;71272;52.166;4.498;2023-08-20T04:41:22;102278.41;;;14.52;100.00
81835;BME280;71272;52.166;4.498;2023-08-20T04:43:47;102273.19;;;14.54;100.00
81835;BME280;71272;52.166;4.498;2023-08-20T04:46:13;102256.97;;;14.40;100.00
81835;BME280;71272;52.166;4.498;2023-08-20T04:48:40;102254.16;;;14.40;100.00
81835;BME280;71272;52.166;4.498;2023-08-20T04:51:05;102263.47;;;14.52;100.00
81835;BME280;71272;52.166;4.498;2023-08-20T04:53:31;102271.97;;;14.59;100.00
81835;BME280;71272;52.166;4.498;2023-08-20T04:55:58;102279.28;;;14.63;100.00
81835;BME280;71272;52.166;4.498;2023-08-20T04:58:23;102283.75;;;14.72;100.00
81835;BME280;71272;52.166;4.498;2023-08-20T05:00:49;102278.19;;;15.00;100.00
81835;BME280;71272;52.166;4.498;2023-08-20T05:03:14;102277.00;;;15.05;100.00
81835;BME280;71272;52.166;4.498;2023-08-20T05:05:40;102267.34;;;15.09;100.00
81835;BME280;71272;52.166;4.498;2023-08-20T05:08:05;102261.69;;;15.20;100.00
81835;BME280;71272;52.166;4.498;2023-08-20T05:10:30;102262.94;;;15.37;100.00
81835;BME280;71272;52.166;4.498;2023-08-20T05:16:20;102263.34;;;15.64;100.00
81835;BME280;71272;52.166;4.498;2023-08-20T05:21:21;102261.38;;;15.83;100.00
81835;BME280;71272;52.166;4.498;2023-08-20T05:23:47;102268.63;;;15.87;100.00
81835;BME280;71272;52.166;4.498;2023-08-20T05:26:12;102285.19;;;16.03;100.00
81835;BME280;71272;52.166;4.498;2023-08-20T05:28:37;102281.53;;;16.10;100.00
81835;BME280;71272;52.166;4.498;2023-08-20T05:31:03;102288.38;;;16.23;100.00
81835;BME280;71272;52.166;4.498;2023-08-20T05:33:53;102290.41;;;16.26;100.00
81835;BME280;71272;52.166;4.498;2023-08-20T05:36:23;102272.63;;;16.22;100.00
81835;BME280;71272;52.166;4.498;2023-08-20T05:38:58;102279.47;;;16.32;100.00
81835;BME280;71272;52.166;4.498;2023-08-20T05:42:01;102293.19;;;16.44;100.00
81835;BME280;71272;52.166;4.498;2023-08-20T05:44:26;102281.88;;;16.40;100.00
81835;BME280;71272;52.166;4.498;2023-08-20T05:46:52;102279.44;;;16.46;100.00
81835;BME280;71272;52.166;4.498;2023-08-20T05:52:39;102293.13;;;16.65;100.00
81835;BME280;71272;52.166;4.498;2023-08-20T05:55:08;102286.22;;;16.67;100.00
81835;BME280;71272;52.166;4.498;2023-08-20T05:57:33;102273.66;;;16.71;100.00
81835;BME280;71272;52.166;4.498;2023-08-20T06:00:09;102262.31;;;16.75;100.00
81835;BME280;71272;52.166;4.498;2023-08-20T06:02:36;102279.25;;;17.00;100.00
81835;BME280;71272;52.166;4.498;2023-08-20T06:05:01;102278.78;;;17.08;100.00
81835;BME280;71272;52.166;4.498;2023-08-20T06:07:27;102288.81;;;17.20;100.00
81835;BME280;71272;52.166;4.498;2023-08-20T06:09:52;102272.66;;;17.17;100.00
81835;BME280;71272;52.166;4.498;2023-08-20T06:12:18;102273.41;;;17.25;100.00
81835;BME280;71272;52.166;4.498;2023-08-20T06:14:43;102276.75;;;17.68;99.98
81835;BME280;71272;52.166;4.498;2023-08-20T07:35:25;102354.38;;;27.97;53.87
81835;BME280;71272;52.166;4.498;2023-08-20T07:37:51;102349.84;;;27.30;56.94
81835;BME280;71272;52.166;4.498;2023-08-20T07:40:16;102330.72;;;27.51;55.83
81835;BME280;71272;52.166;4.498;2023-08-20T08:08:33;102333.16;;;26.73;55.15
81835;BME280;71272;52.166;4.498;2023-08-20T08:10:59;102367.00;;;26.32;57.50
81835;BME280;71272;52.166;4.498;2023-08-20T08:13:25;102373.03;;;27.35;56.28
81835;BME280;71272;52.166;4.498;2023-08-20T08:15:51;102374.56;;;28.45;51.66
81835;BME280;71272;52.166;4.498;2023-08-20T08:18:19;102376.25;;;28.04;52.53
81835;BME280;71272;52.166;4.498;2023-08-20T08:20:45;102368.47;;;27.62;54.36
81835;BME280;71272;52.166;4.498;2023-08-20T08:23:14;102360.22;;;27.36;54.75
81835;BME280;71272;52.166;4.498;2023-08-20T08:54:46;102374.97;;;29.51;47.98
81835;BME280;71272;52.166;4.498;2023-08-20T09:18:59;102388.84;;;30.79;44.63
81835;BME280;71272;52.166;4.498;2023-08-20T09:33:51;102374.09;;;31.29;41.91
81835;BME280;71272;52.166;4.498;2023-08-20T10:24:47;102399.72;;;32.05;39.57
81835;BME280;71272;52.166;4.498;2023-08-20T10:27:27;102372.97;;;31.84;38.12
81835;BME280;71272;52.166;4.498;2023-08-20T10:29:54;102378.41;;;31.71;39.57
81835;BME280;71272;52.166;4.498;2023-08-20T10:32:21;102372.31;;;31.69;39.74
81835;BME280;71272;52.166;4.498;2023-08-20T10:35:06;102391.00;;;30.02;41.29
81835;BME280;71272;52.166;4.498;2023-08-20T10:37:32;102404.53;;;30.46;41.98
81835;BME280;71272;52.166;4.498;2023-08-20T10:39:57;102387.31;;;30.37;42.83
81835;BME280;71272;52.166;4.498;2023-08-20T10:42:26;102383.03;;;30.53;42.07
81835;BME280;71272;52.166;4.498;2023-08-20T10:45:05;102371.91;;;30.46;41.61
81835;BME280;71272;52.166;4.498;2023-08-20T10:47:49;102361.22;;;30.58;41.62
81835;BME280;71272;52.166;4.498;2023-08-20T10:50:20;102360.63;;;30.48;42.00
81835;BME280;71272;52.166;4.498;2023-08-20T10:52:54;102398.22;;;30.89;41.45
81835;BME280;71272;52.166;4.498;2023-08-20T10:55:23;102382.22;;;30.73;40.82
81835;BME280;71272;52.166;4.498;2023-08-20T10:57:56;102379.69;;;30.81;41.45
81835;BME280;71272;52.166;4.498;2023-08-20T11:00:27;102366.59;;;29.53;43.29
81835;BME280;71272;52.166;4.498;2023-08-20T11:02:53;102407.78;;;29.98;43.77
81835;BME280;71272;52.166;4.498;2023-08-20T11:05:20;102351.59;;;29.19;42.88
81835;BME280;71272;52.166;4.498;2023-08-20T11:07:49;102380.06;;;29.41;42.66
81835;BME280;71272;52.166;4.498;2023-08-20T11:10:16;102355.72;;;29.48;42.87
81835;BME280;71272;52.166;4.498;2023-08-20T11:12:43;102376.41;;;29.91;42.70
81835;BME280;71272;52.166;4.498;2023-08-20T11:15:10;102377.38;;;29.08;41.36
81835;BME280;71272;52.166;4.498;2023-08-20T11:17:44;102403.44;;;28.99;44.09
81835;BME280;71272;52.166;4.498;2023-08-20T11:20:14;102353.91;;;28.62;44.62
81835;BME280;71272;52.166;4.498;2023-08-20T11:22:42;102389.84;;;28.75;45.53
81835;BME280;71272;52.166;4.498;2023-08-20T11:25:10;102397.09;;;29.10;46.21
81835;BME280;71272;52.166;4.498;2023-08-20T11:27:40;102391.44;;;29.15;44.23
81835;BME280;71272;52.166;4.498;2023-08-20T11:30:09;102391.31;;;29.10;44.98
81835;BME280;71272;52.166;4.498;2023-08-20T11:32:37;102380.50;;;28.81;46.06
81835;BME280;71272;52.166;4.498;2023-08-20T11:35:05;102397.19;;;29.15;45.66
81835;BME280;71272;52.166;4.498;2023-08-20T11:37:32;102389.31;;;29.16;44.99
81835;BME280;71272;52.166;4.498;2023-08-20T11:39:57;102341.28;;;28.89;43.75
81835;BME280;71272;52.166;4.498;2023-08-20T11:42:23;102371.41;;;29.27;44.01
81835;BME280;71272;52.166;4.498;2023-08-20T11:44:49;102366.63;;;29.09;45.30
81835;BME280;71272;52.166;4.498;2023-08-20T11:47:17;102370.56;;;28.82;44.70
81835;BME280;71272;52.166;4.498;2023-08-20T11:49:43;102375.13;;;28.73;43.46
81835;BME280;71272;52.166;4.498;2023-08-20T11:52:09;102379.06;;;28.61;43.33
81835;BME280;71272;52.166;4.498;2023-08-20T11:54:35;102381.56;;;28.29;45.44
81835;BME280;71272;52.166;4.498;2023-08-20T11:57:03;102407.03;;;28.55;46.42
81835;BME280;71272;52.166;4.498;2023-08-20T11:59:29;102361.25;;;28.00;45.94
81835;BME280;71272;52.166;4.498;2023-08-20T12:01:56;102402.53;;;28.30;46.55
81835;BME280;71272;52.166;4.498;2023-08-20T12:04:25;102387.66;;;27.98;46.34
81835;BME280;71272;52.166;4.498;2023-08-20T12:09:32;102396.47;;;27.61;47.24
81835;BME280;71272;52.166;4.498;2023-08-20T12:11:57;102418.19;;;27.81;47.66
81835;BME280;71272;52.166;4.498;2023-08-20T12:14:24;102420.28;;;27.80;48.06
81835;BME280;71272;52.166;4.498;2023-08-20T12:16:49;102417.41;;;27.71;46.17
81835;BME280;71272;52.166;4.498;2023-08-20T12:19:18;102386.03;;;27.21;46.35
81835;BME280;71272;52.166;4.498;2023-08-20T12:21:43;102392.44;;;27.26;46.67
81835;BME280;71272;52.166;4.498;2023-08-20T12:24:09;102414.88;;;27.64;47.40
81835;BME280;71272;52.166;4.498;2023-08-20T12:26:35;102399.03;;;27.59;47.28
81835;BME280;71272;52.166;4.498;2023-08-20T12:29:01;102382.47;;;27.45;46.47
81835;BME280;71272;52.166;4.498;2023-08-20T12:31:26;102426.53;;;27.70;45.95
81835;BME280;71272;52.166;4.498;2023-08-20T12:33:52;102382.47;;;27.36;47.16
81835;BME280;71272;52.166;4.498;2023-08-20T12:39:39;102396.47;;;27.61;45.96
81835;BME280;71272;52.166;4.498;2023-08-20T12:42:05;102392.63;;;26.76;47.16
81835;BME280;71272;52.166;4.498;2023-08-20T12:44:30;102420.09;;;26.95;49.66
81835;BME280;71272;52.166;4.498;2023-08-20T12:46:55;102395.19;;;26.83;48.76
81835;BME280;71272;52.166;4.498;2023-08-20T12:49:21;102397.03;;;27.32;48.59
81835;BME280;71272;52.166;4.498;2023-08-20T12:51:46;102409.59;;;27.62;48.01
81835;BME280;71272;52.166;4.498;2023-08-20T12:54:12;102378.66;;;27.72;48.13
81835;BME280;71272;52.166;4.498;2023-08-20T12:56:37;102412.13;;;27.70;46.51
81835;BME280;71272;52.166;4.498;2023-08-20T12:59:02;102398.91;;;27.54;46.33
81835;BME280;71272;52.166;4.498;2023-08-20T13:01:28;102384.72;;;26.21;48.76
81835;BME280;71272;52.166;4.498;2023-08-20T13:03:54;102386.47;;;26.19;51.14
81835;BME280;71272;52.166;4.498;2023-08-20T13:06:19;102366.88;;;26.35;50.84
81835;BME280;71272;52.166;4.498;2023-08-20T13:08:46;102401.75;;;26.74;49.96
81835;BME280;71272;52.166;4.498;2023-08-20T13:11:14;102370.72;;;26.69;49.47
81835;BME280;71272;52.166;4.498;2023-08-20T13:13:42;102366.56;;;26.79;48.73
81835;BME280;71272;52.166;4.498;2023-08-20T13:16:07;102371.97;;;26.87;48.79
81835;BME280;71272;52.166;4.498;2023-08-20T13:18:35;102412.09;;;27.09;50.05
81835;BME280;71272;52.166;4.498;2023-08-20T13:21:01;102392.94;;;26.96;49.84
81835;BME280;71272;52.166;4.498;2023-08-20T13:23:26;102360.66;;;26.74;49.22
81835;BME280;71272;52.166;4.498;2023-08-20T13:25:51;102393.44;;;26.58;49.56
81835;BME280;71272;52.166;4.498;2023-08-20T13:28:17;102380.13;;;26.33;50.31
81835;BME280;71272;52.166;4.498;2023-08-20T13:30:43;102423.16;;;26.73;50.35
81835;BME280;71272;52.166;4.498;2023-08-20T13:33:08;102390.66;;;26.45;49.63
81835;BME280;71272;52.166;4.498;2023-08-20T13:35:34;102424.72;;;26.47;49.61
81835;BME280;71272;52.166;4.498;2023-08-20T13:37:59;102383.13;;;26.20;49.15
81835;BME280;71272;52.166;4.498;2023-08-20T13:40:24;102416.75;;;26.51;49.86
81835;BME280;71272;52.166;4.498;2023-08-20T13:42:50;102400.94;;;26.65;49.04
81835;BME280;71272;52.166;4.498;2023-08-20T13:45:15;102418.69;;;26.91;50.15
81835;BME280;71272;52.166;4.498;2023-08-20T13:47:40;102372.16;;;26.65;49.05
81835;BME280;71272;52.166;4.498;2023-08-20T13:50:06;102416.94;;;26.66;49.81
81835;BME280;71272;52.166;4.498;2023-08-20T13:52:31;102390.66;;;26.45;50.81
81835;BME280;71272;52.166;4.498;2023-08-20T13:54:56;102365.47;;;25.50;50.78
81835;BME280;71272;52.166;4.498;2023-08-20T13:57:22;102371.81;;;25.45;50.15
81835;BME280;71272;52.166;4.498;2023-08-20T13:59:48;102378.34;;;24.70;51.79
81835;BME280;71272;52.166;4.498;2023-08-20T14:02:14;102379.13;;;24.71;53.93
81835;BME280;71272;52.166;4.498;2023-08-20T14:04:39;102384.09;;;24.92;54.20
81835;BME280;71272;52.166;4.498;2023-08-20T14:07:05;102372.34;;;24.77;56.17
81835;BME280;71272;52.166;4.498;2023-08-20T14:09:30;102382.59;;;24.88;55.82
81835;BME280;71272;52.166;4.498;2023-08-20T14:11:56;102388.34;;;25.10;53.91
81835;BME280;71272;52.166;4.498;2023-08-20T14:14:21;102391.34;;;25.28;55.30
81835;BME280;71272;52.166;4.498;2023-08-20T14:16:46;102382.47;;;25.13;53.97
81835;BME280;71272;52.166;4.498;2023-08-20T14:19:12;102383.72;;;25.12;53.87
81835;BME280;71272;52.166;4.498;2023-08-20T14:21:37;102400.75;;;25.07;53.24
81835;BME280;71272;52.166;4.498;2023-08-20T14:24:03;102363.81;;;24.87;53.32
81835;BME280;71272;52.166;4.498;2023-08-20T14:26:28;102390.41;;;24.65;54.53
81835;BME280;71272;52.166;4.498;2023-08-20T14:28:54;102397.97;;;24.94;55.44
81835;BME280;71272;52.166;4.498;2023-08-20T14:31:20;102386.41;;;25.07;53.68
81835;BME280;71272;52.166;4.498;2023-08-20T14:33:45;102327.91;;;24.60;54.65
81835;BME280;71272;52.166;4.498;2023-08-20T14:36:11;102388.44;;;24.75;53.28
81835;BME280;71272;52.166;4.498;2023-08-20T14:38:36;102400.66;;;24.88;53.37
81835;BME280;71272;52.166;4.498;2023-08-20T14:41:02;102397.28;;;24.90;53.98
81835;BME280;71272;52.166;4.498;2023-08-20T14:43:29;102383.88;;;24.65;54.59
81835;BME280;71272;52.166;4.498;2023-08-20T14:45:54;102370.94;;;24.82;54.64
81835;BME280;71272;52.166;4.498;2023-08-20T14:48:23;102372.56;;;24.48;55.45
81835;BME280;71272;52.166;4.498;2023-08-20T14:50:49;102362.38;;;24.47;55.93
81835;BME280;71272;52.166;4.498;2023-08-20T14:53:16;102382.47;;;24.69;56.14
81835;BME280;71272;52.166;4.498;2023-08-20T14:55:42;102389.47;;;24.68;54.45
81835;BME280;71272;52.166;4.498;2023-08-20T14:58:07;102376.75;;;24.69;55.03
81835;BME280;71272;52.166;4.498;2023-08-20T15:00:33;102385.25;;;24.60;56.37
81835;BME280;71272;52.166;4.498;2023-08-20T15:02:58;102373.84;;;24.47;56.24
81835;BME280;71272;52.166;4.498;2023-08-20T15:05:23;102377.38;;;24.51;56.94
81835;BME280;71272;52.166;4.498;2023-08-20T15:07:49;102390.75;;;24.67;56.57
81835;BME280;71272;52.166;4.498;2023-08-20T15:10:14;102386.94;;;24.70;56.04
81835;BME280;71272;52.166;4.498;2023-08-20T15:12:40;102381.94;;;24.84;55.96
81835;BME280;71272;52.166;4.498;2023-08-20T15:15:07;102382.72;;;24.62;57.05
81835;BME280;71272;52.166;4.498;2023-08-20T15:17:36;102372.84;;;24.63;56.49
81835;BME280;71272;52.166;4.498;2023-08-20T15:20:01;102382.47;;;24.69;57.07
81835;BME280;71272;52.166;4.498;2023-08-20T15:22:30;102369.47;;;24.43;56.83
81835;BME280;71272;52.166;4.498;2023-08-20T15:24:55;102370.56;;;24.58;56.01
81835;BME280;71272;52.166;4.498;2023-08-20T15:27:23;102370.06;;;24.72;55.07
81835;BME280;71272;52.166;4.498;2023-08-20T15:29:49;102364.72;;;24.62;55.29
81835;BME280;71272;52.166;4.498;2023-08-20T15:32:15;102349.16;;;24.50;54.79
81835;BME280;71272;52.166;4.498;2023-08-20T15:34:40;102361.38;;;24.63;56.18
81835;BME280;71272;52.166;4.498;2023-08-20T15:37:05;102351.38;;;24.46;57.67
81835;BME280;71272;52.166;4.498;2023-08-20T15:39:32;102378.94;;;24.65;57.50
81835;BME280;71272;52.166;4.498;2023-08-20T15:41:59;102360.72;;;24.59;57.36
81835;BME280;71272;52.166;4.498;2023-08-20T15:44:24;102366.69;;;24.52;57.65
81835;BME280;71272;52.166;4.498;2023-08-20T15:46:49;102370.66;;;24.45;57.58
81835;BME280;71272;52.166;4.498;2023-08-20T15:49:15;102375.09;;;24.46;55.45
81835;BME280;71272;52.166;4.498;2023-08-20T15:51:40;102374.06;;;24.40;56.82
81835;BME280;71272;52.166;4.498;2023-08-20T15:54:06;102378.44;;;24.32;57.83
81835;BME280;71272;52.166;4.498;2023-08-20T15:56:31;102384.03;;;24.35;58.92
81835;BME280;71272;52.166;4.498;2023-08-20T15:58:56;102369.63;;;24.26;57.78
81835;BME280;71272;52.166;4.498;2023-08-20T16:01:24;102334.88;;;23.77;57.94
81835;BME280;71272;52.166;4.498;2023-08-20T16:03:50;102370.41;;;23.79;57.81
81835;BME280;71272;52.166;4.498;2023-08-20T16:06:15;102369.34;;;23.86;57.91
81835;BME280;71272;52.166;4.498;2023-08-20T16:08:41;102352.63;;;23.59;60.74
81835;BME280;71272;52.166;4.498;2023-08-20T16:11:07;102339.22;;;23.56;61.35
81835;BME280;71272;52.166;4.498;2023-08-20T16:13:37;102354.13;;;23.63;60.41
81835;BME280;71272;52.166;4.498;2023-08-20T16:16:03;102362.34;;;23.61;59.47
81835;BME280;71272;52.166;4.498;2023-08-20T16:18:29;102352.59;;;23.46;59.86
81835;BME280;71272;52.166;4.498;2023-08-20T16:20:54;102340.34;;;23.45;61.02
81835;BME280;71272;52.166;4.498;2023-08-20T16:23:19;102341.50;;;23.48;60.21
81835;BME280;71272;52.166;4.498;2023-08-20T16:25:45;102340.91;;;23.40;58.61
81835;BME280;71272;52.166;4.498;2023-08-20T16:28:10;102356.63;;;23.48;58.60
81835;BME280;71272;52.166;4.498;2023-08-20T16:30:37;102361.41;;;23.52;56.78
81835;BME280;71272;52.166;4.498;2023-08-20T16:33:07;102363.03;;;23.53;57.36
81835;BME280;71272;52.166;4.498;2023-08-20T16:35:33;102363.41;;;23.55;57.75
81835;BME280;71272;52.166;4.498;2023-08-20T16:37:58;102352.63;;;23.33;57.47
81835;BME280;71272;52.166;4.498;2023-08-20T16:40:24;102359.94;;;23.47;55.42
81835;BME280;71272;52.166;4.498;2023-08-20T16:42:49;102367.84;;;23.56;55.86